createdAt,value
2022-09-21T00:01:29.569Z,1.17
2022-09-21T00:03:59.615Z,2.20
2022-09-21T00:06:29.362Z,1.43
2022-09-21T00:08:57.806Z,1.30
2022-09-21T00:11:27.539Z,1.40
2022-09-21T00:13:57.749Z,1.43
2022-09-21T00:16:27.259Z,1.47
2022-09-21T00:18:55.522Z,1.40
2022-09-21T00:21:23.901Z,1.33
2022-09-21T00:23:52.084Z,1.63
2022-09-21T00:26:22.590Z,1.73
2022-09-21T00:28:55.371Z,1.47
2022-09-21T00:31:23.982Z,1.50
2022-09-21T00:33:53.787Z,1.83
2022-09-21T00:36:23.671Z,1.30
2022-09-21T00:38:52.942Z,1.47
2022-09-21T00:41:21.721Z,1.70
2022-09-21T00:44:09.962Z,1.60
2022-09-21T00:46:40.230Z,1.40
2022-09-21T00:49:10.063Z,3.00
2022-09-21T00:51:39.070Z,1.40
2022-09-21T00:54:15.155Z,1.57
2022-09-21T00:56:44.541Z,1.60
2022-09-21T00:59:14.256Z,1.70
2022-09-21T01:01:43.153Z,1.70
2022-09-21T01:04:13.752Z,1.40
2022-09-21T01:06:42.789Z,1.20
2022-09-21T01:09:11.000Z,1.30
2022-09-21T01:11:45.148Z,1.33
2022-09-21T01:14:27.791Z,1.40
2022-09-21T01:17:03.506Z,1.57
2022-09-21T01:20:08.360Z,1.43
2022-09-21T01:22:52.930Z,1.30
2022-09-21T01:25:32.251Z,1.93
2022-09-21T01:28:20.928Z,1.20
2022-09-21T01:30:54.145Z,1.23
2022-09-21T01:33:27.651Z,1.70
2022-09-21T01:35:59.684Z,1.40
2022-09-21T01:38:31.432Z,1.27
2022-09-21T01:41:04.279Z,1.60
2022-09-21T01:43:36.456Z,1.20
2022-09-21T01:46:11.091Z,1.30
2022-09-21T01:48:43.144Z,1.30
2022-09-21T01:51:15.024Z,1.27
2022-09-21T01:53:46.154Z,1.60
2022-09-21T01:56:17.290Z,1.40
2022-09-21T01:58:48.633Z,1.70
2022-09-21T02:01:22.271Z,1.30
2022-09-21T02:03:53.123Z,1.83
2022-09-21T02:06:21.704Z,1.43
2022-09-21T02:08:50.043Z,1.40
2022-09-21T02:11:18.078Z,1.33
2022-09-21T02:13:49.456Z,1.23
2022-09-21T02:16:36.024Z,1.40
2022-09-21T02:19:15.246Z,1.40
2022-09-21T02:21:56.367Z,1.20
2022-09-21T02:24:33.870Z,1.50
2022-09-21T02:27:06.231Z,1.93
2022-09-21T02:29:44.618Z,1.60
2022-09-21T02:32:24.414Z,1.70
2022-09-21T02:34:57.664Z,2.37
2022-09-21T02:37:33.513Z,1.83
2022-09-21T02:40:09.727Z,1.60
2022-09-21T02:42:42.924Z,1.37
2022-09-21T02:45:15.396Z,1.20
2022-09-21T02:47:50.615Z,1.30
2022-09-21T02:50:24.057Z,1.50
2022-09-21T02:52:53.820Z,1.50
2022-09-21T02:55:22.833Z,1.63
2022-09-21T02:57:51.655Z,1.47
2022-09-21T03:00:33.677Z,1.40
2022-09-21T03:03:17.243Z,1.47
2022-09-21T03:05:47.546Z,1.40
2022-09-21T03:08:15.868Z,1.87
2022-09-21T03:10:44.171Z,2.60
2022-09-21T03:13:28.379Z,1.40
2022-09-21T03:16:01.825Z,1.53
2022-09-21T03:18:31.711Z,1.33
2022-09-21T03:21:00.289Z,1.70
2022-09-21T03:23:28.354Z,1.40
2022-09-21T03:25:56.647Z,1.67
2022-09-21T03:28:24.861Z,1.50
2022-09-21T03:30:53.680Z,1.50
2022-09-21T03:33:22.328Z,1.30
2022-09-21T03:35:52.153Z,1.40
2022-09-21T03:38:21.623Z,1.30
2022-09-21T03:40:50.523Z,1.30
2022-09-21T03:43:19.106Z,1.40
2022-09-21T03:45:48.335Z,1.40
2022-09-21T03:48:16.843Z,1.83
2022-09-21T03:50:45.063Z,1.50
2022-09-21T03:53:15.116Z,1.87
2022-09-21T03:55:43.656Z,2.27
2022-09-21T03:58:11.725Z,1.73
2022-09-21T04:00:40.297Z,1.40
2022-09-21T04:03:08.547Z,1.30
2022-09-21T04:05:36.637Z,1.97
2022-09-21T04:08:04.746Z,1.40
2022-09-21T04:10:34.154Z,1.73
2022-09-21T04:13:04.092Z,1.30
2022-09-21T04:15:32.579Z,1.47
2022-09-21T04:18:00.721Z,2.33
2022-09-21T04:20:28.798Z,1.40
2022-09-21T04:22:56.886Z,1.30
2022-09-21T04:25:24.958Z,1.60
2022-09-21T04:27:54.459Z,1.37
2022-09-21T04:30:22.524Z,1.30
2022-09-21T04:32:50.534Z,1.70
2022-09-21T04:35:18.903Z,1.30
2022-09-21T04:37:46.894Z,2.07
2022-09-21T04:40:15.054Z,1.50
2022-09-21T04:42:43.152Z,1.33
2022-09-21T04:45:12.866Z,1.40
2022-09-21T04:47:40.781Z,1.30
2022-09-21T04:50:09.710Z,1.40
2022-09-21T04:52:37.887Z,1.40
2022-09-21T04:55:06.765Z,1.20
2022-09-21T04:57:35.762Z,1.43
2022-09-21T05:00:04.810Z,1.53
2022-09-21T05:02:35.381Z,1.40
2022-09-21T05:05:03.436Z,1.50
2022-09-21T05:07:31.531Z,1.40
2022-09-21T05:10:04.542Z,1.40
2022-09-21T05:12:33.398Z,1.40
2022-09-21T05:15:01.493Z,1.40
2022-09-21T05:17:29.685Z,1.53
2022-09-21T05:19:59.106Z,1.60
2022-09-21T05:22:27.190Z,1.70
2022-09-21T05:24:55.780Z,1.40
2022-09-21T05:27:23.928Z,1.50
2022-09-21T05:29:52.910Z,1.73
2022-09-21T05:32:27.503Z,1.50
2022-09-21T05:35:03.461Z,1.67
2022-09-21T05:37:49.731Z,1.43
2022-09-21T05:40:18.698Z,1.50
2022-09-21T05:42:47.356Z,2.13
2022-09-21T05:45:18.010Z,2.47
2022-09-21T05:47:59.769Z,1.50
2022-09-21T05:50:40.854Z,1.90
2022-09-21T05:53:23.690Z,1.50
2022-09-21T05:55:57.097Z,1.83
2022-09-21T05:58:33.409Z,1.50
2022-09-21T06:01:21.063Z,1.90
2022-09-21T06:03:50.307Z,1.50
2022-09-21T06:06:21.344Z,1.77
2022-09-21T06:08:49.293Z,1.30
2022-09-21T06:11:17.660Z,1.40
2022-09-21T06:13:45.682Z,1.60
2022-09-21T06:16:14.168Z,1.63
2022-09-21T06:18:42.638Z,1.93
2022-09-21T06:21:11.413Z,1.43
2022-09-21T06:23:40.795Z,1.90
2022-09-21T06:26:08.876Z,2.47
2022-09-21T06:28:36.876Z,2.03
2022-09-21T06:31:05.031Z,1.33
2022-09-21T06:33:35.438Z,1.70
2022-09-21T06:36:03.834Z,1.30
2022-09-21T06:38:32.021Z,1.20
2022-09-21T06:41:05.416Z,1.57
2022-09-21T06:43:34.078Z,1.83
2022-09-21T06:46:03.425Z,2.03
2022-09-21T06:48:33.861Z,2.50
2022-09-21T06:51:03.388Z,2.00
2022-09-21T06:53:32.962Z,1.67
2022-09-21T06:56:06.562Z,1.30
2022-09-21T06:58:35.284Z,2.17
2022-09-21T07:01:08.523Z,2.13
2022-09-21T07:03:37.396Z,1.50
2022-09-21T07:06:06.646Z,3.00
2022-09-21T07:11:25.403Z,1.50
2022-09-21T07:13:53.556Z,2.27
2022-09-21T07:16:22.045Z,1.90
2022-09-21T07:18:50.307Z,1.50
2022-09-21T07:21:18.975Z,1.50
2022-09-21T07:23:47.010Z,2.47
2022-09-21T07:26:15.846Z,1.50
2022-09-21T07:31:15.559Z,2.37
2022-09-21T07:33:44.397Z,1.77
2022-09-21T07:36:13.122Z,2.10
2022-09-21T07:38:43.296Z,2.30
2022-09-21T07:41:13.278Z,1.60
2022-09-21T07:43:41.347Z,1.40
2022-09-21T07:46:10.931Z,2.50
2022-09-21T07:48:40.524Z,1.53
2022-09-21T07:51:10.159Z,2.10
2022-09-21T07:53:39.584Z,1.60
2022-09-21T07:56:10.631Z,2.60
2022-09-21T07:58:56.665Z,3.10
2022-09-21T08:01:25.443Z,4.20
2022-09-21T08:03:56.327Z,2.67
2022-09-21T08:06:26.098Z,2.50
2022-09-21T08:08:57.802Z,2.50
2022-09-21T08:11:27.948Z,1.50
2022-09-21T08:13:57.744Z,2.23
2022-09-21T08:16:26.783Z,2.40
2022-09-21T08:18:56.487Z,2.27
2022-09-21T08:21:24.647Z,3.27
2022-09-21T08:23:52.681Z,2.97
2022-09-21T08:26:22.755Z,1.53
2022-09-21T08:28:52.814Z,3.17
2022-09-21T08:31:22.521Z,3.10
2022-09-21T08:33:51.443Z,3.03
2022-09-21T08:36:20.994Z,2.90
2022-09-21T08:38:49.198Z,2.27
2022-09-21T08:41:19.947Z,1.90
2022-09-21T08:43:52.268Z,2.10
2022-09-21T08:46:23.278Z,2.07
2022-09-21T08:48:56.786Z,2.67
2022-09-21T08:51:29.595Z,1.80
2022-09-21T08:54:01.691Z,2.47
2022-09-21T08:56:41.864Z,3.63
2022-09-21T08:59:17.842Z,2.63
2022-09-21T09:01:59.625Z,2.37
2022-09-21T09:04:35.559Z,3.00
2022-09-21T09:07:18.486Z,2.50
2022-09-21T09:10:01.750Z,2.17
2022-09-21T09:12:45.815Z,2.10
2022-09-21T09:15:52.813Z,2.13
2022-09-21T09:18:30.110Z,2.37
2022-09-21T09:21:02.129Z,2.72
2022-09-21T09:23:36.990Z,3.20
2022-09-21T09:26:10.204Z,2.20
2022-09-21T09:28:42.734Z,2.83
2022-09-21T09:31:17.716Z,2.10
2022-09-21T09:33:53.974Z,1.77
2022-09-21T09:36:46.613Z,2.00
2022-09-21T09:39:15.367Z,1.60
2022-09-21T09:41:58.256Z,1.60
2022-09-21T09:44:44.861Z,1.80
2022-09-21T09:47:23.383Z,1.50
2022-09-21T09:50:04.002Z,1.40
2022-09-21T09:52:32.695Z,2.20
2022-09-21T09:55:04.151Z,1.20
2022-09-21T09:57:34.367Z,1.67
2022-09-21T10:00:09.515Z,1.70
2022-09-21T10:02:47.666Z,1.20
2022-09-21T10:05:25.811Z,1.43
2022-09-21T10:07:54.230Z,1.30
2022-09-21T10:10:32.335Z,1.10
2022-09-21T10:13:12.599Z,1.17
2022-09-21T10:15:44.895Z,1.10
2022-09-21T10:18:20.958Z,1.40
2022-09-21T10:21:01.139Z,1.37
2022-09-21T10:23:30.284Z,1.17
2022-09-21T10:26:02.914Z,1.10
2022-09-21T10:28:31.811Z,1.30
2022-09-21T10:31:17.698Z,1.50
2022-09-21T10:33:51.209Z,1.80
2022-09-21T10:36:38.007Z,1.83
2022-09-21T10:39:27.911Z,1.40
2022-09-21T10:42:04.394Z,1.37
2022-09-21T10:44:39.817Z,1.50
2022-09-21T10:47:20.131Z,1.43
2022-09-21T10:49:51.392Z,1.67
2022-09-21T10:52:22.381Z,2.10
2022-09-21T10:54:52.785Z,1.23
2022-09-21T10:57:25.225Z,1.37
2022-09-21T10:59:53.342Z,1.37
2022-09-21T11:02:38.573Z,1.37
2022-09-21T11:05:15.168Z,1.40
2022-09-21T11:07:48.933Z,1.40
2022-09-21T11:10:22.941Z,1.10
2022-09-21T11:13:04.724Z,1.40
2022-09-21T11:15:43.092Z,1.23
2022-09-21T11:18:20.038Z,1.10
2022-09-21T11:20:50.934Z,1.90
2022-09-21T11:23:34.746Z,1.50
2022-09-21T11:26:14.041Z,1.30
2022-09-21T11:28:51.040Z,1.90
2022-09-21T11:31:36.936Z,1.67
2022-09-21T11:34:31.095Z,1.97
2022-09-21T11:37:11.416Z,1.60
2022-09-21T11:39:50.678Z,1.23
2022-09-21T11:42:34.464Z,1.30
2022-09-21T11:45:08.079Z,1.47
2022-09-21T11:47:54.724Z,1.47
2022-09-21T11:50:39.718Z,1.50
2022-09-21T11:53:25.479Z,1.20
2022-09-21T11:56:31.473Z,1.30
2022-09-21T11:59:12.818Z,1.20
2022-09-21T12:01:57.172Z,1.17
2022-09-21T12:04:44.652Z,1.57
2022-09-21T12:07:30.228Z,1.40
2022-09-21T12:10:34.628Z,1.50
2022-09-21T12:13:09.922Z,1.20
2022-09-21T12:15:43.437Z,1.30
2022-09-21T12:18:19.750Z,1.20
2022-09-21T12:20:52.492Z,1.27
2022-09-21T12:23:26.852Z,1.40
2022-09-21T12:25:59.455Z,1.10
2022-09-21T12:28:31.283Z,1.40
2022-09-21T12:31:04.279Z,1.27
2022-09-21T12:33:40.440Z,1.10
2022-09-21T12:36:17.076Z,1.23
2022-09-21T12:38:51.140Z,1.30
2022-09-21T12:41:27.659Z,1.63
2022-09-21T12:44:02.178Z,1.10
2022-09-21T12:46:34.873Z,1.10
2022-09-21T12:49:14.261Z,1.33
2022-09-21T12:51:46.577Z,1.10
2022-09-21T12:54:29.987Z,1.33
2022-09-21T12:57:23.204Z,1.20
2022-09-21T13:00:01.854Z,2.47
2022-09-21T13:02:37.061Z,1.50
2022-09-21T13:05:12.954Z,1.73
2022-09-21T13:08:04.872Z,1.10
2022-09-21T13:10:44.607Z,1.40
2022-09-21T13:13:27.941Z,1.50
2022-09-21T13:15:59.071Z,1.37
2022-09-21T13:18:35.795Z,1.40
2022-09-21T13:21:18.742Z,1.30
2022-09-21T13:23:54.591Z,1.20
2022-09-21T13:26:33.518Z,1.10
2022-09-21T13:29:23.219Z,1.30
2022-09-21T13:31:59.634Z,3.37
2022-09-21T13:34:30.750Z,1.30
2022-09-21T13:37:35.777Z,2.17
2022-09-21T13:40:41.357Z,1.60
2022-09-21T13:43:47.281Z,1.60
2022-09-21T13:46:47.651Z,1.77
2022-09-21T13:49:25.160Z,1.57
2022-09-21T13:51:57.667Z,1.60
2022-09-21T13:54:29.243Z,1.40
2022-09-21T13:57:15.608Z,1.57
2022-09-21T13:59:47.622Z,1.80
2022-09-21T14:02:32.554Z,1.63
2022-09-21T14:05:08.088Z,1.20
2022-09-21T14:07:36.790Z,1.37
2022-09-21T14:10:08.984Z,1.57
2022-09-21T14:12:45.120Z,1.77
2022-09-21T14:15:37.723Z,1.60
2022-09-21T14:18:46.511Z,1.90
2022-09-21T14:21:18.379Z,1.23
2022-09-21T14:24:28.217Z,1.20
2022-09-21T14:27:05.184Z,1.27
2022-09-21T14:29:44.387Z,1.40
2022-09-21T14:32:18.119Z,1.23
2022-09-21T14:34:50.152Z,1.37
2022-09-21T14:37:29.266Z,1.63
2022-09-21T14:39:59.890Z,1.60
2022-09-21T14:42:29.886Z,1.43
2022-09-21T14:45:00.382Z,1.57
2022-09-21T14:47:53.909Z,1.63
2022-09-21T14:50:34.102Z,1.60
2022-09-21T14:53:30.340Z,2.13
2022-09-21T14:56:12.662Z,1.20
2022-09-21T14:58:55.166Z,1.40
2022-09-21T15:01:37.418Z,1.60
2022-09-21T15:04:52.454Z,1.77
2022-09-21T15:07:50.080Z,2.10
2022-09-21T15:10:43.042Z,1.30
2022-09-21T15:13:43.459Z,1.73
2022-09-21T15:16:23.748Z,2.30
2022-09-21T15:19:02.014Z,1.90
2022-09-21T15:21:33.471Z,1.40
2022-09-21T15:24:18.115Z,1.57
2022-09-21T15:26:47.657Z,1.47
2022-09-21T15:29:28.818Z,1.30
2022-09-21T15:31:56.988Z,1.37
2022-09-21T15:34:25.672Z,1.60
2022-09-21T15:36:55.492Z,1.93
2022-09-21T15:39:28.832Z,1.67
2022-09-21T15:42:20.062Z,1.40
2022-09-21T15:44:50.635Z,1.50
2022-09-21T15:47:22.092Z,1.20
2022-09-21T15:49:51.076Z,1.43
2022-09-21T15:52:29.061Z,1.40
2022-09-21T15:55:00.512Z,1.53
2022-09-21T15:57:38.959Z,1.37
2022-09-21T16:00:20.419Z,1.60
2022-09-21T16:03:04.953Z,1.37
2022-09-21T16:05:42.311Z,1.50
2022-09-21T16:08:22.577Z,1.30
2022-09-21T16:10:51.415Z,1.50
2022-09-21T16:13:38.536Z,1.30
2022-09-21T16:16:09.274Z,1.37
2022-09-21T16:18:47.263Z,1.53
2022-09-21T16:21:23.838Z,2.57
2022-09-21T16:23:56.053Z,1.37
2022-09-21T16:26:26.855Z,13.20
2022-09-21T16:29:00.456Z,6.10
2022-09-21T16:31:33.974Z,2.33
2022-09-21T16:34:20.370Z,6.40
2022-09-21T16:36:50.258Z,36.40
2022-09-21T16:39:21.157Z,31.37
2022-09-21T16:41:52.623Z,13.67
2022-09-21T16:44:23.588Z,42.63
2022-09-21T16:46:58.435Z,58.07
2022-09-21T16:49:30.589Z,40.43
2022-09-21T16:51:59.322Z,10.17
2022-09-21T16:54:29.429Z,10.20
2022-09-21T16:56:59.510Z,5.20
2022-09-21T16:59:28.343Z,6.13
2022-09-21T17:01:58.526Z,3.27
2022-09-21T17:04:29.450Z,5.43
2022-09-21T17:06:58.415Z,2.13
2022-09-21T17:09:32.327Z,1.80
2022-09-21T17:12:01.627Z,2.20
2022-09-21T17:14:35.316Z,1.33
2022-09-21T17:17:05.772Z,2.40
2022-09-21T17:19:34.892Z,2.17
2022-09-21T17:22:04.637Z,3.60
2022-09-21T17:24:49.776Z,1.60
2022-09-21T17:27:21.078Z,2.70
2022-09-21T17:29:49.912Z,1.47
2022-09-21T17:32:20.382Z,1.70
2022-09-21T17:34:56.452Z,1.50
2022-09-21T17:37:25.336Z,1.90
2022-09-21T17:39:54.905Z,1.60
2022-09-21T17:42:25.814Z,1.63
2022-09-21T17:45:12.983Z,2.33
2022-09-21T17:47:42.135Z,1.70
2022-09-21T17:50:23.125Z,1.43
2022-09-21T17:53:09.045Z,1.80
2022-09-21T17:55:39.940Z,3.30
2022-09-21T17:58:26.669Z,5.43
2022-09-21T18:01:01.672Z,4.97
2022-09-21T18:03:32.455Z,4.23
2022-09-21T18:06:01.397Z,3.97
2022-09-21T18:08:30.755Z,3.47
2022-09-21T18:11:09.314Z,3.00
2022-09-21T18:13:48.207Z,1.73
2022-09-21T18:16:27.202Z,2.23
2022-09-21T18:19:05.924Z,2.77
2022-09-21T18:21:38.177Z,2.40
2022-09-21T18:24:20.613Z,2.00
2022-09-21T18:26:52.263Z,2.00
2022-09-21T18:29:40.656Z,2.20
2022-09-21T18:32:32.399Z,1.63
2022-09-21T18:35:12.805Z,2.63
2022-09-21T18:37:48.623Z,1.50
2022-09-21T18:40:22.732Z,1.70
2022-09-21T18:42:57.854Z,2.17
2022-09-21T18:45:28.623Z,1.63
2022-09-21T18:48:14.973Z,1.80
2022-09-21T18:50:51.686Z,1.60
2022-09-21T18:53:28.030Z,1.67
2022-09-21T18:55:56.979Z,2.00
2022-09-21T18:58:27.227Z,1.87
2022-09-21T19:00:56.127Z,1.77
2022-09-21T19:03:24.740Z,1.70
2022-09-21T19:06:04.172Z,11.07
2022-09-21T19:08:40.283Z,16.10
2022-09-21T19:11:15.898Z,10.10
2022-09-21T19:13:56.474Z,6.53
2022-09-21T19:16:31.176Z,6.87
2022-09-21T19:19:12.906Z,19.23
2022-09-21T19:21:46.830Z,5.50
2022-09-21T19:24:24.164Z,4.83
2022-09-21T19:27:07.519Z,3.60
2022-09-21T19:29:54.578Z,5.93
2022-09-21T19:32:32.482Z,3.67
2022-09-21T19:35:02.973Z,2.17
2022-09-21T19:37:31.844Z,1.77
2022-09-21T19:40:00.151Z,1.87
2022-09-21T19:42:38.101Z,1.50
2022-09-21T19:45:16.903Z,2.10
2022-09-21T19:47:50.978Z,1.40
2022-09-21T19:50:22.686Z,1.70
2022-09-21T19:52:52.501Z,2.03
2022-09-21T19:55:40.104Z,1.40
2022-09-21T19:58:25.805Z,1.50
2022-09-21T20:00:57.312Z,1.70
2022-09-21T20:03:31.479Z,2.30
2022-09-21T20:06:06.322Z,1.87
2022-09-21T20:08:41.469Z,2.40
2022-09-21T20:11:14.346Z,2.00
2022-09-21T20:14:06.453Z,2.30
2022-09-21T20:16:44.093Z,1.60
2022-09-21T20:19:22.421Z,1.50
2022-09-21T20:21:56.904Z,1.33
2022-09-21T20:24:29.564Z,1.23
2022-09-21T20:26:57.926Z,2.73
2022-09-21T20:29:25.862Z,1.77
2022-09-21T20:31:56.247Z,1.90
2022-09-21T20:34:24.345Z,1.77
2022-09-21T20:36:52.319Z,2.30
2022-09-21T20:39:20.327Z,1.50
2022-09-21T20:41:48.784Z,1.80
2022-09-21T20:44:16.735Z,1.57
2022-09-21T20:46:44.716Z,1.60
2022-09-21T20:49:16.105Z,1.50
2022-09-21T20:51:44.062Z,1.90
2022-09-21T20:54:12.234Z,1.80
2022-09-21T20:56:40.617Z,1.53
2022-09-21T20:59:08.699Z,3.00
2022-09-21T21:01:36.763Z,1.53
2022-09-21T21:04:04.805Z,1.50
2022-09-21T21:06:34.186Z,1.60
2022-09-21T21:09:02.933Z,1.53
2022-09-21T21:11:30.919Z,1.20
2022-09-21T21:13:59.405Z,1.67
2022-09-21T21:16:28.313Z,1.20
2022-09-21T21:18:56.747Z,1.70
2022-09-21T21:21:25.883Z,1.80
2022-09-21T21:24:13.355Z,2.10
2022-09-21T21:27:01.160Z,1.90
2022-09-21T21:29:30.159Z,2.00
2022-09-21T21:31:59.280Z,1.97
2022-09-21T21:34:27.822Z,2.53
2022-09-21T21:36:56.604Z,1.50
2022-09-21T21:39:26.004Z,1.90
2022-09-21T21:41:53.925Z,2.10
2022-09-21T21:44:22.367Z,1.90
2022-09-21T21:46:51.476Z,1.97
2022-09-21T21:49:20.251Z,1.40
2022-09-21T21:51:49.499Z,1.70
2022-09-21T21:54:18.637Z,1.47
2022-09-21T21:56:48.460Z,1.80
2022-09-21T21:59:17.971Z,1.30
2022-09-21T22:01:46.385Z,1.50
2022-09-21T22:04:16.311Z,1.30
2022-09-21T22:06:44.585Z,1.30
2022-09-21T22:09:14.805Z,1.40
2022-09-21T22:11:42.827Z,1.97
2022-09-21T22:14:12.890Z,1.90
2022-09-21T22:16:41.177Z,1.40
2022-09-21T22:19:09.835Z,1.83
2022-09-21T22:21:41.597Z,1.60
2022-09-21T22:24:11.037Z,1.40
2022-09-21T22:26:42.695Z,2.30
2022-09-21T22:29:14.296Z,1.30
2022-09-21T22:31:44.243Z,1.30
2022-09-21T22:34:13.553Z,1.20
2022-09-21T22:36:43.647Z,1.40
2022-09-21T22:39:12.334Z,1.43
2022-09-21T22:41:42.125Z,1.60
2022-09-21T22:44:12.052Z,1.50
2022-09-21T22:46:40.224Z,1.30
2022-09-21T22:49:08.592Z,1.83
2022-09-21T22:51:38.101Z,1.60
2022-09-21T22:54:06.476Z,1.83
2022-09-21T22:56:35.001Z,1.50
2022-09-21T22:59:05.447Z,1.90
2022-09-21T23:01:36.481Z,1.87
2022-09-21T23:04:06.576Z,1.40
2022-09-21T23:06:36.547Z,1.30
2022-09-21T23:09:07.092Z,1.30
2022-09-21T23:11:37.121Z,1.90
2022-09-21T23:14:05.898Z,1.20
2022-09-21T23:16:35.407Z,1.47
2022-09-21T23:19:03.462Z,1.73
2022-09-21T23:21:32.252Z,1.80
2022-09-21T23:24:01.651Z,1.40
2022-09-21T23:26:31.240Z,1.60
2022-09-21T23:29:01.357Z,1.20
2022-09-21T23:31:31.007Z,1.40
2022-09-21T23:34:04.011Z,1.80
2022-09-21T23:36:33.254Z,1.60
2022-09-21T23:39:01.248Z,1.27
2022-09-21T23:41:30.990Z,1.63
2022-09-21T23:43:59.719Z,1.30
2022-09-21T23:46:30.222Z,1.40
2022-09-21T23:49:00.216Z,2.87
2022-09-21T23:51:29.890Z,1.40
2022-09-21T23:53:58.040Z,1.30
2022-09-21T23:56:26.686Z,1.30
2022-09-21T23:58:54.693Z,1.60
